Flight Track Log - Related Links

Times and Time Zones

All times are in EDT time to prevent confusion due to time zone crossing. See the N983CA flight status page for this flight to view local times or setup timezone preferences in your user account.

Time Position Orientation Groundspeed Altitude Reporting Facility
EDT Latitude Longitude Course Direction KTS MPH feet Rate Location/Type
Wed 11:21:49 AM 37.6667 -122.3667 133° Southeast 181 208 2,600  Level Northern Cal TRACON
Wed 11:22:49 AM 37.7000 -122.4333 302° West 273 314 4,400 2,350 Climbing Northern Cal TRACON
Wed 11:23:49 AM 37.6333 -122.4667 202° Southwest 285 328 7,300 2,651 Climbing Northern Cal TRACON
Wed 11:24:00 AM 37.3809 -122.2637 136° Southeast  Level FlightAware Approximate
Wed 11:24:15 AM 37.6092 -122.4706 187° South 273 314 8,200  Level Oakland Center
Wed 11:25:00 AM 37.2938 -122.1542 122° Southeast  Level FlightAware Approximate
Wed 11:25:17 AM 37.5289 -122.4639 176° South 287 330 10,800  Level Oakland Center
Wed 11:26:00 AM 37.2131 -122.0372 135° Southeast  Level FlightAware Approximate
Wed 11:26:18 AM 37.4681 -122.3853 134° Southeast 318 366 12,500  Level Oakland Center
Wed 11:27:00 AM 37.1452 -121.9491 133° Southeast  Level FlightAware Approximate
Wed 11:27:19 AM 37.4114 -122.2917 127° Southeast 337 388 14,600  Level Oakland Center
Wed 11:28:20 AM 37.3519 -122.1956 128° Southeast 350 403 16,400 1,918 Climbing Oakland Center
Wed 11:29:21 AM 37.2783 -122.0767 128° Southeast 359 413 18,500 1,756 Climbing Oakland Center
Wed 11:30:23 AM 37.2161 -121.9767 128° Southeast 365 420 20,000 1,512 Climbing Oakland Center
Wed 11:31:24 AM 37.1514 -121.8736 128° Southeast 374 430 21,600 1,328 Climbing Oakland Center
Wed 11:32:25 AM 37.0917 -121.7761 128° Southeast 381 438 22,700 1,033 Climbing Oakland Center
Wed 11:33:26 AM 37.0175 -121.6622 129° Southeast 392 451 23,700 1,082 Climbing Oakland Center
Wed 11:34:27 AM 36.9517 -121.5486 126° Southeast 401 461 24,900 1,043 Climbing Oakland Center
Wed 11:36:30 AM 36.8831 -121.2753 107° East 411 473 26,900 685 Climbing Oakland Center
Wed 11:37:31 AM 36.8403 -121.1181 109° East 423 487 27,000 49 Climbing Oakland Center
Wed 11:38:32 AM 36.7772 -120.9897 121° Southeast 456 525 27,000  Level Oakland Center
Wed 11:39:34 AM 36.6917 -120.8706 132° Southeast 460 529 27,000 -49 Level Oakland Center
Wed 11:40:35 AM 36.6044 -120.7489 132° Southeast 472 543 26,900  Descending Oakland Center
Wed 11:41:36 AM 36.5236 -120.6328 131° Southeast 444 511 27,000 49 Climbing Oakland Center
Wed 11:42:37 AM 36.4392 -120.5144 132° Southeast 455 524 27,000  Level Oakland Center
Wed 11:43:39 AM 36.3350 -120.3675 131° Southeast 475 547 27,000  Level Oakland Center
Wed 11:44:40 AM 36.2472 -120.2458 132° Southeast 475 547 27,000  Level Oakland Center
Wed 11:45:41 AM 36.1594 -120.1231 132° Southeast 473 544 27,000  Level Oakland Center
Wed 11:46:43 AM 36.0719 -120.0017 132° Southeast 470 541 27,000  Level Oakland Center
Wed 11:47:44 AM 35.9858 -119.8858 133° Southeast 458 527 27,000  Level Oakland Center
Wed 11:48:45 AM 35.9006 -119.7681 132° Southeast 456 525 27,000  Level Oakland Center
Wed 11:49:47 AM 35.8133 -119.6489 132° Southeast 459 528 27,000  Level Oakland Center
Wed 11:50:48 AM 35.7261 -119.5294 132° Southeast 463 533 27,000  Level Oakland Center
Wed 11:51:49 AM 35.6389 -119.4117 132° Southeast 465 535 27,000  Level Oakland Center
Wed 11:52:12 AM 35.6061 -119.3647 131° Southeast 461 531 27,000  Level Los Angeles Center
Wed 11:53:14 AM 35.5192 -119.2483 133° Southeast 461 531 27,000  Level Los Angeles Center
Wed 11:54:16 AM 35.4331 -119.1311 132° Southeast 461 531 27,000  Level Los Angeles Center
Wed 11:55:18 AM 35.3300 -118.9908 132° Southeast 461 531 27,000  Level Los Angeles Center
Wed 11:56:32 AM 35.2436 -118.8739 132° Southeast 463 533 27,000  Level Los Angeles Center
Wed 11:57:34 AM 35.1383 -118.7347 133° Southeast 465 535 27,000  Level Los Angeles Center
Wed 11:58:36 AM 35.0519 -118.6200 133° Southeast 460 529 27,000  Level Los Angeles Center
Wed 11:59:38 AM 34.9661 -118.5069 133° Southeast 455 524 27,000  Level Los Angeles Center
Wed 12:00:40 PM 34.8781 -118.3914 133° Southeast 430 495 27,000  Level Los Angeles Center
Wed 12:01:42 PM 34.8011 -118.2906 133° Southeast 414 476 27,000 -435 Level Los Angeles Center
Wed 12:02:44 PM 34.7217 -118.1850 132° Southeast 422 486 26,100 -2,129 Descending Los Angeles Center
Wed 12:03:46 PM 34.6422 -118.0811 133° Southeast 424 488 22,600 -2,419 Descending Los Angeles Center
Wed 12:04:48 PM 34.5728 -117.9367 120° Southeast 418 481 21,100 -1,306 Descending Los Angeles Center
Wed 12:05:50 PM 34.5147 -117.8119 119° Southeast 419 482 19,900 -1,790 Descending Los Angeles Center
Wed 12:06:52 PM 34.4633 -117.6997 119° Southeast 397 457 17,400 -1,355 Descending Los Angeles Center
Wed 12:07:54 PM 34.4147 -117.5947 119° Southeast 366 421 17,100 -145 Descending Los Angeles Center
Wed 12:08:56 PM 34.3608 -117.4736 118° Southeast 357 411 17,100  Level Los Angeles Center
Wed 12:09:58 PM 34.3108 -117.3658 119° Southeast 365 420 17,100 -387 Level Los Angeles Center
Wed 12:11:00 PM 34.2606 -117.2597 120° Southeast 363 418 16,300 -1,016 Descending Los Angeles Center
Wed 12:12:02 PM 34.2131 -117.1594 120° Southeast 333 383 15,000 -1,065 Descending Los Angeles Center
Wed 12:13:04 PM 34.1692 -117.0664 120° Southeast 319 367 14,100 -435 Descending Los Angeles Center
Wed 12:14:06 PM 34.1272 -116.9756 119° Southeast 313 360 14,100  Level Los Angeles Center
Wed 12:14:50 PM 34.0833 -116.9000 125° Southeast 309 356 14,100 -97 Level Southern California TRACON
Wed 12:15:08 PM 34.0800 -116.8739 99° East 309 356 14,000 -300 Descending Los Angeles Center
Wed 12:16:10 PM 34.0369 -116.7822 120° Southeast 315 362 13,700 -339 Descending Los Angeles Center
Wed 12:17:12 PM 34.0008 -116.7025 119° Southeast 271 312 13,300 -1,306 Descending Los Angeles Center
Wed 12:18:14 PM 33.9692 -116.6358 120° Southeast 230 265 11,000 -2,323 Descending Los Angeles Center
Wed 12:19:16 PM 33.9403 -116.5778 121° Southeast 208 239 8,500 -2,274 Descending Los Angeles Center
Wed 12:20:18 PM 33.9083 -116.5083 119° Southeast 209 241 6,300 -2,143 Descending Los Angeles Center
Wed 12:21:50 PM 33.8500 -116.4333 133° Southeast 176 203 3,000 -1,461 Descending Southern California TRACON
Wed 12:22:50 PM 33.8167 -116.4000 140° Southeast 160 184 2,600 -450 Descending Southern California TRACON
Wed 12:23:50 PM 33.7833 -116.4333 220° Southwest 150 173 2,100 -500 Descending Southern California TRACON

Login

Don't have an account? Register now (free) for customized features, flight alerts, and more!